createdAt,value
2022-11-18T00:01:48.155Z,21.27
2022-11-18T00:04:16.390Z,19.95
2022-11-18T00:06:44.139Z,23.13
2022-11-18T00:09:11.932Z,23.63
2022-11-18T00:11:59.026Z,20.63
2022-11-18T00:14:27.653Z,20.98
2022-11-18T00:16:57.661Z,20.60
2022-11-18T00:19:27.351Z,22.08
2022-11-18T00:21:54.979Z,22.58
2022-11-18T00:24:22.648Z,17.98
2022-11-18T00:26:50.890Z,20.10
2022-11-18T00:29:18.772Z,18.92
2022-11-18T00:31:46.570Z,29.08
2022-11-18T00:34:15.361Z,27.70
2022-11-18T00:36:43.838Z,26.52
2022-11-18T00:39:12.151Z,21.25
2022-11-18T00:41:58.073Z,23.35
2022-11-18T00:44:26.356Z,24.05
2022-11-18T00:46:54.315Z,28.00
2022-11-18T00:49:22.003Z,31.42
2022-11-18T00:51:49.750Z,24.02
2022-11-18T00:54:19.080Z,28.90
2022-11-18T00:56:46.854Z,27.30
2022-11-18T00:59:17.307Z,27.23
2022-11-18T01:01:45.243Z,30.98
2022-11-18T01:04:12.894Z,24.90
2022-11-18T01:06:40.741Z,30.52
2022-11-18T01:09:08.972Z,28.20
2022-11-18T01:11:55.026Z,29.90
2022-11-18T01:14:24.985Z,27.77
2022-11-18T01:16:56.475Z,31.85
2022-11-18T01:19:24.427Z,27.20
2022-11-18T01:21:52.042Z,29.73
2022-11-18T01:24:19.789Z,28.52
2022-11-18T01:26:47.376Z,29.70
2022-11-18T01:29:16.072Z,32.40
2022-11-18T01:32:01.813Z,30.42
2022-11-18T01:34:31.941Z,27.80
2022-11-18T01:36:59.493Z,28.48
2022-11-18T01:39:27.840Z,29.42
2022-11-18T01:41:55.954Z,29.00
2022-11-18T04:15:09.902Z,24.85
2022-11-18T04:17:37.621Z,27.65
2022-11-18T04:20:05.691Z,29.00
2022-11-18T04:22:36.231Z,33.45
2022-11-18T04:25:03.974Z,29.55
2022-11-18T04:27:31.584Z,28.58
2022-11-18T04:29:59.346Z,30.48
2022-11-18T04:32:26.945Z,28.80
2022-11-18T04:34:54.549Z,27.42
2022-11-18T04:37:22.359Z,29.42
2022-11-18T04:39:50.315Z,28.65
2022-11-18T04:42:18.060Z,29.00
2022-11-18T04:44:45.726Z,27.05
2022-11-18T04:47:13.638Z,23.35
2022-11-18T04:49:41.161Z,27.35
2022-11-18T04:52:09.705Z,29.42
2022-11-18T04:54:37.319Z,31.27
2022-11-18T04:57:04.962Z,26.48
2022-11-18T04:59:34.257Z,30.50
2022-11-18T05:02:02.035Z,28.95
2022-11-18T05:05:26.430Z,27.98
2022-11-18T05:09:10.167Z,32.22
2022-11-18T05:12:08.013Z,27.23
2022-11-18T05:14:36.399Z,32.45
2022-11-18T05:17:05.530Z,26.55
2022-11-18T05:19:42.245Z,27.73
2022-11-18T05:22:10.105Z,29.77
2022-11-18T05:24:38.305Z,29.95
2022-11-18T05:27:06.264Z,30.92
2022-11-18T05:29:34.447Z,32.83
2022-11-18T05:32:02.347Z,30.83
2022-11-18T05:34:48.818Z,29.05
2022-11-18T05:37:16.593Z,24.25
2022-11-18T05:39:44.261Z,30.33
2022-11-18T05:42:30.451Z,32.22
2022-11-18T05:44:59.022Z,28.60
2022-11-18T05:47:27.255Z,32.70
2022-11-18T05:49:55.108Z,27.33
2022-11-18T05:52:22.811Z,30.65
2022-11-18T05:54:50.755Z,27.77
2022-11-18T05:57:18.471Z,30.95
2022-11-18T05:59:46.581Z,36.08
2022-11-18T06:02:17.031Z,34.47
2022-11-18T06:04:49.645Z,33.22
2022-11-18T06:07:23.216Z,31.98
2022-11-18T06:09:54.999Z,33.10
2022-11-18T06:12:28.995Z,21.08
2022-11-18T06:15:27.756Z,33.28
2022-11-18T06:18:07.733Z,33.92
2022-11-18T06:20:36.663Z,29.55
2022-11-18T06:23:04.341Z,30.20
2022-11-18T06:25:32.438Z,29.50
2022-11-18T06:28:01.647Z,34.67
2022-11-18T06:30:29.567Z,35.38
2022-11-18T06:32:57.283Z,36.70
2022-11-18T06:35:25.228Z,37.78
2022-11-18T06:37:53.256Z,31.95
2022-11-18T06:40:20.927Z,30.90
2022-11-18T06:43:07.118Z,35.50
2022-11-18T06:45:35.453Z,30.02
2022-11-18T06:48:04.338Z,32.78
2022-11-18T06:50:32.320Z,33.17
2022-11-18T06:53:18.160Z,35.15
2022-11-18T06:55:45.901Z,34.75
2022-11-18T06:58:14.347Z,34.20
2022-11-18T07:00:42.097Z,33.95
2022-11-18T07:03:09.926Z,35.38
2022-11-18T07:05:39.922Z,32.95
2022-11-18T07:08:07.560Z,28.70
2022-11-18T07:10:35.244Z,33.40
2022-11-18T07:13:03.309Z,27.42
2022-11-18T07:15:31.275Z,32.72
2022-11-18T07:17:58.974Z,38.97
2022-11-18T07:20:26.721Z,34.85
2022-11-18T07:22:54.659Z,36.90
2022-11-18T07:25:22.565Z,34.30
2022-11-18T07:27:50.356Z,37.92
2022-11-18T07:30:18.266Z,38.90
2022-11-18T07:32:46.046Z,32.60
2022-11-18T07:35:14.561Z,33.60
2022-11-18T07:37:42.283Z,32.88
2022-11-18T07:40:10.659Z,33.65
2022-11-18T07:42:45.542Z,34.75
2022-11-18T07:45:25.370Z,31.92
2022-11-18T07:47:53.008Z,36.40
2022-11-18T07:50:20.640Z,33.05
2022-11-18T07:52:48.315Z,35.72
2022-11-18T07:55:15.928Z,32.97
2022-11-18T07:57:44.058Z,32.45
2022-11-18T08:00:11.999Z,31.58
2022-11-18T08:02:44.107Z,33.03
2022-11-18T08:05:17.700Z,34.22
2022-11-18T08:07:47.036Z,29.02
2022-11-18T08:10:14.765Z,26.58
2022-11-18T08:12:43.091Z,31.13
2022-11-18T08:15:11.265Z,32.55
2022-11-18T08:17:39.093Z,31.67
2022-11-18T08:20:07.162Z,35.03
2022-11-18T08:22:52.855Z,26.77
2022-11-18T08:25:20.617Z,27.25
2022-11-18T08:27:48.447Z,26.67
2022-11-18T08:30:16.154Z,26.33
2022-11-18T08:32:44.199Z,26.92
2022-11-18T08:35:12.317Z,28.23
2022-11-18T08:37:39.987Z,25.13
2022-11-18T08:40:08.058Z,21.65
2022-11-18T08:42:37.947Z,22.42
2022-11-18T08:45:08.587Z,25.40
2022-11-18T08:47:36.946Z,23.85
2022-11-18T08:50:05.968Z,22.02
2022-11-18T08:52:34.002Z,26.42
2022-11-18T08:55:01.624Z,29.45
2022-11-18T08:57:29.366Z,22.88
2022-11-18T08:59:56.960Z,24.20
2022-11-18T09:02:25.062Z,28.02
2022-11-18T09:04:52.687Z,25.58
2022-11-18T09:07:21.629Z,24.27
2022-11-18T09:09:50.476Z,25.88
2022-11-18T09:12:18.154Z,22.58
2022-11-18T09:17:35.097Z,23.58
2022-11-18T09:20:02.745Z,22.95
2022-11-18T09:22:32.189Z,23.02
2022-11-18T09:24:59.732Z,20.33
2022-11-18T09:27:27.473Z,22.17
2022-11-18T09:29:55.080Z,23.55
2022-11-18T09:32:22.751Z,24.60
2022-11-18T09:34:50.452Z,21.60
2022-11-18T09:37:19.235Z,25.83
2022-11-18T09:39:46.932Z,29.77
2022-11-18T09:42:23.660Z,25.48
2022-11-18T09:45:07.376Z,26.30
2022-11-18T09:47:38.010Z,27.00
2022-11-18T09:50:47.805Z,24.17
2022-11-18T09:53:21.687Z,25.45
2022-11-18T09:55:50.272Z,24.67
2022-11-18T09:58:23.094Z,25.50
2022-11-18T10:00:51.013Z,35.10
2022-11-18T10:03:26.704Z,26.60
2022-11-18T10:06:05.162Z,30.38
2022-11-18T10:08:46.046Z,26.85
2022-11-18T10:11:18.454Z,28.30
2022-11-18T10:13:51.848Z,26.80
2022-11-18T10:16:42.316Z,30.92
2022-11-18T10:19:30.078Z,29.50
2022-11-18T10:22:24.349Z,26.40
2022-11-18T15:35:43.422Z,81.15
2022-11-18T15:38:11.882Z,92.15
2022-11-18T15:40:40.796Z,75.40
2022-11-18T15:43:08.511Z,73.28
2022-11-18T15:45:36.354Z,62.95
2022-11-18T15:48:04.225Z,73.65
2022-11-18T15:50:32.363Z,70.50
2022-11-18T15:53:00.315Z,49.80
2022-11-18T15:55:28.026Z,52.08
2022-11-18T15:57:55.783Z,48.58
2022-11-18T16:00:24.049Z,48.92
2022-11-18T16:02:52.180Z,44.35
2022-11-18T16:05:19.858Z,44.72
2022-11-18T16:07:52.786Z,57.28
2022-11-18T16:10:40.852Z,68.15
2022-11-18T16:13:08.485Z,62.15
2022-11-18T16:15:48.313Z,71.75
2022-11-18T16:18:16.817Z,53.33
2022-11-18T16:20:44.564Z,46.03
2022-11-18T16:23:12.393Z,49.42
2022-11-18T16:25:46.414Z,56.42
2022-11-18T16:28:14.069Z,51.05
2022-11-18T16:31:00.522Z,44.60
2022-11-18T16:33:28.913Z,43.70
2022-11-18T16:35:56.621Z,49.03
2022-11-18T16:38:24.409Z,43.08
2022-11-18T16:40:56.878Z,45.38
2022-11-18T16:43:24.869Z,52.28
2022-11-18T16:45:53.817Z,47.75
2022-11-18T16:48:21.892Z,47.10
2022-11-18T16:50:55.207Z,39.17
2022-11-18T16:53:22.931Z,32.20
2022-11-18T16:55:50.521Z,32.50
2022-11-18T16:58:18.270Z,34.00
2022-11-18T17:01:16.419Z,35.13
2022-11-18T17:03:33.736Z,35.65
2022-11-18T17:06:01.418Z,37.63
2022-11-18T17:08:29.265Z,33.17
2022-11-18T17:10:56.929Z,34.88
2022-11-18T17:13:24.862Z,35.78
2022-11-18T17:15:52.454Z,35.08
2022-11-18T17:18:20.210Z,35.70
2022-11-18T17:20:47.913Z,37.15
2022-11-18T17:23:15.849Z,35.08
2022-11-18T17:25:43.916Z,33.30
2022-11-18T17:28:12.088Z,33.40
2022-11-18T17:30:43.483Z,32.88
2022-11-18T17:33:15.562Z,32.58
2022-11-18T17:35:43.172Z,36.67
2022-11-18T17:38:10.894Z,38.38
2022-11-18T17:40:39.095Z,29.70
2022-11-18T17:43:06.783Z,32.67
2022-11-18T17:45:34.540Z,35.47
2022-11-18T17:48:02.523Z,49.95
2022-11-18T17:50:30.329Z,56.38
2022-11-18T17:52:58.316Z,45.05
2022-11-18T17:55:25.976Z,41.55
2022-11-18T17:57:53.760Z,35.33
2022-11-18T18:00:21.520Z,42.60
2022-11-18T18:02:49.264Z,44.85
2022-11-18T18:05:17.025Z,46.75
2022-11-18T18:07:45.512Z,46.10
2022-11-18T18:10:13.419Z,47.95
2022-11-18T18:13:00.907Z,45.33
2022-11-18T18:15:30.392Z,47.50
2022-11-18T18:17:59.669Z,52.30
2022-11-18T18:20:27.799Z,50.83
2022-11-18T18:22:56.985Z,54.75
2022-11-18T18:25:25.453Z,53.90
2022-11-18T18:27:55.020Z,61.17
2022-11-18T18:30:22.806Z,69.18
2022-11-18T18:32:52.721Z,61.13
2022-11-18T18:35:21.160Z,58.58
2022-11-18T18:37:48.835Z,55.08
2022-11-18T18:40:16.876Z,59.13
2022-11-18T18:42:44.644Z,57.80
2022-11-18T18:45:30.916Z,66.78
2022-11-18T18:48:03.247Z,68.95
2022-11-18T18:50:32.530Z,70.45
2022-11-18T18:53:00.265Z,77.30
2022-11-18T18:55:28.764Z,131.32
2022-11-18T18:57:56.363Z,95.22
2022-11-18T19:00:24.078Z,85.85
2022-11-18T19:02:54.871Z,81.30
2022-11-18T19:08:10.941Z,85.30
2022-11-18T19:10:39.399Z,76.13
2022-11-18T19:13:07.228Z,88.88
2022-11-18T19:15:35.767Z,86.35
2022-11-18T22:34:46.889Z,70.38
2022-11-18T22:37:18.206Z,72.90
2022-11-18T22:39:47.631Z,59.47
2022-11-18T22:42:38.344Z,65.63
2022-11-18T22:45:06.668Z,51.00
2022-11-18T22:47:34.260Z,65.85
2022-11-18T22:50:01.933Z,64.32
2022-11-18T22:52:29.718Z,67.63
2022-11-18T22:54:57.409Z,57.88
2022-11-18T22:57:25.236Z,57.70
2022-11-18T22:59:53.884Z,57.28
2022-11-18T23:02:21.459Z,68.68
2022-11-18T23:04:49.480Z,75.38
2022-11-18T23:07:17.308Z,53.88
2022-11-18T23:09:44.923Z,62.85
2022-11-18T23:12:32.644Z,65.40
2022-11-18T23:15:00.248Z,71.57
2022-11-18T23:17:27.917Z,67.82
2022-11-18T23:19:56.741Z,71.07
2022-11-18T23:22:24.459Z,61.67
2022-11-18T23:24:52.060Z,72.97
2022-11-18T23:27:19.700Z,57.03
2022-11-18T23:29:47.426Z,66.82
2022-11-18T23:32:15.341Z,71.68
2022-11-18T23:34:43.174Z,62.47
2022-11-18T23:37:11.015Z,64.13
2022-11-18T23:39:38.755Z,69.45
2022-11-18T23:42:06.527Z,71.88
2022-11-18T23:44:46.129Z,70.53
2022-11-18T23:47:14.019Z,72.57
2022-11-18T23:49:42.023Z,63.10
2022-11-18T23:52:10.861Z,58.28
2022-11-18T23:54:40.643Z,54.38
2022-11-18T23:57:08.338Z,60.20
2022-11-18T23:59:35.876Z,59.80
